• Join FlightAware (Why Join?)
  • Login
  • US Flag 
03:36AM EDT


 

Airport Tracker/Info


-or-


 

Live Flight TrackerFlight Track Log ✈ JIA2228 ✈ 15-May-2012 ✈ KTLH - KCLT

Flight Track Log - Related Links

Times and Time Zones

All times are in EDT time to prevent confusion due to time zone crossing. See the JIA2228 flight status page for this flight to view local times or setup timezone preferences in your user account.

Time Position Orientation Groundspeed Altitude Reporting Facility
EDT Latitude Longitude Course Direction KTS MPH feet Rate Location/Type
09:32PM 30.4444 -84.3197 246° West  Level FlightAware Approximate
09:33PM 30.5441 -84.3333 212° Southwest  Level FlightAware Approximate
09:33PM 30.3992 -84.4364 359° North 215 247 4,300  Level Jacksonville Center
09:38PM 30.8125 -84.4456 North 318 366 16,800 2,340 Climbing Jacksonville Center
09:39PM 30.9064 -84.4444 North 329 379 18,400 1,500 Climbing Jacksonville Center
09:40PM 31.0067 -84.4342 North 341 392 19,900 1,500 Climbing Jacksonville Center
09:41PM 31.1050 -84.4211 North 351 404 21,400 1,500 Climbing Jacksonville Center
09:42PM 31.2094 -84.4083 23° Northeast 361 415 22,900 1,500 Climbing Jacksonville Center
09:43PM 31.3042 -84.3611 38° Northeast 361 415 24,400 1,140 Climbing Jacksonville Center
09:46PM 31.4939 -84.1897 37° Northeast 397 457 26,700 960 Climbing Atlanta Center
09:47PM 31.5881 -84.1072 36° Northeast 407 468 27,700 960 Climbing Atlanta Center
09:48PM 31.6839 -84.0242 37° Northeast 413 475 28,700 600 Climbing Atlanta Center
09:49PM 31.7903 -83.9289 37° Northeast 418 481 29,000 120 Climbing Atlanta Center
09:50PM 31.9133 -83.8211 38° Northeast 434 499 29,000  Level Atlanta Center
09:51PM 32.0156 -83.7278 38° Northeast 449 517 29,000  Level Atlanta Center
09:52PM 32.1194 -83.6317 37° Northeast 460 529 29,000  Level Atlanta Center
09:53PM 32.2236 -83.5381 38° Northeast 465 535 29,000  Level Atlanta Center
09:54PM 32.3294 -83.4414 37° Northeast 465 535 29,000  Level Atlanta Center
09:55PM 32.4356 -83.3472 38° Northeast 470 541 29,000  Level Atlanta Center
09:56PM 32.5433 -83.2478 38° Northeast 476 548 29,000  Level Atlanta Center
09:57PM 32.6514 -83.1483 39° Northeast 481 554 29,000  Level Atlanta Center
09:58PM 32.7569 -83.0483 38° Northeast 481 554 29,000  Level Atlanta Center
09:59PM 32.8606 -82.9508 37° Northeast 481 554 29,000  Level Atlanta Center
10:00PM 32.9681 -82.8528 38° Northeast 481 554 29,000  Level Atlanta Center
10:01PM 33.0778 -82.7522 38° Northeast 481 554 29,000  Level Atlanta Center
10:02PM 33.1872 -82.6514 35° Northeast 481 554 29,000 -240 Level Atlanta Center
10:03PM 33.2989 -82.5575 23° Northeast 481 554 28,600 -780 Descending Atlanta Center
10:04PM 33.4317 -82.4906 25° Northeast 493 567 27,500 -1,080 Descending Atlanta Center
10:05PM 33.5519 -82.4236 25° Northeast 493 567 26,500 -1,020 Descending Atlanta Center
10:06PM 33.6658 -82.3589 31° Northeast 458 527 25,500 -900 Descending Atlanta Center
10:07PM 33.7608 -82.2897 33° Northeast 442 509 24,700 -780 Descending Atlanta Center
10:08PM 33.8619 -82.2100 32° Northeast 442 509 24,000 -360 Descending Atlanta Center
10:09PM 33.9733 -82.1250 32° Northeast 432 497 24,000  Level Atlanta Center
10:10PM 34.0683 -82.0528 32° Northeast 419 482 24,000  Level Atlanta Center
10:11PM 34.1672 -81.9775 32° Northeast 413 475 24,000  Level Atlanta Center
10:12PM 34.2619 -81.9050 32° Northeast 408 470 24,000 -720 Level Atlanta Center
10:13PM 34.3567 -81.8319 31° Northeast 408 470 22,600 -2,160 Descending Atlanta Center
10:14PM 34.4514 -81.7617 33° Northeast 408 470 19,700 -2,940 Descending Atlanta Center
10:15PM 34.5419 -81.6911 31° Northeast 398 458 16,800 -2,880 Descending Atlanta Center
10:15PM 34.5994 -81.6489 32° Northeast 376 433 14,900 -2,940 Descending Atlanta Center
10:16PM 34.6797 -81.5886 37° Northeast 364 419 12,200 -1,560 Descending Atlanta Center
10:17PM 34.7536 -81.5208 47° Northeast 341 392 12,000 -420 Descending Atlanta Center
10:19PM 34.8328 -81.4172 46° Northeast 362 417 11,400 -840 Descending Atlanta Center
10:20PM 34.8997 -81.3339 47° Northeast 344 396 10,300 -720 Descending Atlanta Center
10:21PM 34.9647 -81.2483 48° Northeast 339 390 10,000 -300 Descending Atlanta Center
10:22PM 35.0253 -81.1675 46° Northeast 315 362 9,800 -480 Descending Atlanta Center
10:23PM 35.0922 -81.0842 North 299 344 9,000 -480 Descending Atlanta Center
10:24PM 35.1567 -81.0717 North 287 330 8,900 -600 Descending Atlanta Center
10:25PM 35.2272 -81.0589 33° Northeast 259 298 7,900 -1,200 Descending Atlanta Center
10:26PM 35.2867 -81.0108 63° Northeast 249 287 6,600 -1,380 Descending Atlanta Center
10:27PM 35.3161 -80.9411 63° Northeast 238 274 5,200 -1,380 Descending Atlanta Center